DKH1267 ZSPD-ZLXY
Flight info
| Callsign | DKH1267 |
|---|---|
| Flight time | 2h 3m |
| Altitude | 32100 |
| Route | PIK86D PIKAS G330 PIMOL V14 NOBEM W73 VEMEX W163 HFE B208 ZHO DCT SHX DCT ZS |
| Aircraft | A320/M-SDE3FGHIRWY/LB1 |
Departure
| Time | 2026-05-04 13:09 |
|---|---|
| Airport | Shanghai Pudong International Airport (ZSPD) |
Arrival
| Time | 2026-05-04 15:12 |
|---|---|
| Airport | Xi'an Xianyang International Airport (ZLXY) |
| Time | Latitude | Longitude | Altitude | Speed | Heading |
|---|---|---|---|---|---|
| 2026-05-04 12:10 | 31.14866 | 121.80728 | 23 ft | 0 kts | 72° |
| 2026-05-04 12:49 | 31.14862 | 121.80712 | 26 ft | 2 kts | 72° |
| 2026-05-04 12:49 | 31.14857 | 121.80694 | 25 ft | 2 kts | 72° |
| 2026-05-04 12:50 | 31.14852 | 121.80676 | 24 ft | 2 kts | 72° |
| 2026-05-04 12:50 | 31.14850 | 121.80657 | 26 ft | 3 kts | 102° |
| 2026-05-04 12:50 | 31.14863 | 121.80637 | 27 ft | 3 kts | 159° |
| 2026-05-04 12:50 | 31.14867 | 121.80635 | 26 ft | 0 kts | 161° |
| 2026-05-04 12:51 | 31.14872 | 121.80633 | 26 ft | 0 kts | 161° |
| 2026-05-04 12:58 | 31.14857 | 121.80639 | 25 ft | 7 kts | 160° |
| 2026-05-04 12:58 | 31.14782 | 121.80668 | 23 ft | 15 kts | 163° |
| 2026-05-04 12:58 | 31.14671 | 121.80711 | 27 ft | 18 kts | 162° |
| 2026-05-04 12:59 | 31.14548 | 121.80757 | 25 ft | 19 kts | 161° |
| 2026-05-04 12:59 | 31.14475 | 121.80785 | 26 ft | 8 kts | 162° |
| 2026-05-04 12:59 | 31.14423 | 121.80805 | 23 ft | 8 kts | 162° |
| 2026-05-04 12:59 | 31.14382 | 121.80820 | 23 ft | 0 kts | 162° |
| 2026-05-04 13:00 | 31.14366 | 121.80824 | 24 ft | 5 kts | 174° |
| 2026-05-04 13:00 | 31.14338 | 121.80783 | 23 ft | 9 kts | 249° |
| 2026-05-04 13:00 | 31.14309 | 121.80686 | 25 ft | 16 kts | 254° |
| 2026-05-04 13:00 | 31.14279 | 121.80576 | 26 ft | 11 kts | 250° |
| 2026-05-04 13:01 | 31.14258 | 121.80500 | 24 ft | 9 kts | 252° |
| 2026-05-04 13:01 | 31.14240 | 121.80434 | 23 ft | 8 kts | 252° |
| 2026-05-04 13:01 | 31.14218 | 121.80356 | 24 ft | 12 kts | 252° |
| 2026-05-04 13:01 | 31.14188 | 121.80250 | 24 ft | 16 kts | 251° |
| 2026-05-04 13:02 | 31.14153 | 121.80120 | 25 ft | 19 kts | 252° |
| 2026-05-04 13:02 | 31.14109 | 121.79962 | 23 ft | 22 kts | 251° |
| 2026-05-04 13:02 | 31.14058 | 121.79775 | 24 ft | 26 kts | 252° |
| 2026-05-04 13:02 | 31.14032 | 121.79614 | 23 ft | 13 kts | 295° |
| 2026-05-04 13:03 | 31.14072 | 121.79591 | 23 ft | 5 kts | 345° |
| 2026-05-04 13:03 | 31.14137 | 121.79568 | 26 ft | 18 kts | 340° |
| 2026-05-04 13:03 | 31.14267 | 121.79518 | 23 ft | 23 kts | 342° |
| 2026-05-04 13:03 | 31.14435 | 121.79456 | 24 ft | 27 kts | 342° |
| 2026-05-04 13:04 | 31.14629 | 121.79381 | 23 ft | 31 kts | 342° |
| 2026-05-04 13:04 | 31.14843 | 121.79303 | 23 ft | 33 kts | 339° |
| 2026-05-04 13:04 | 31.15062 | 121.79218 | 26 ft | 34 kts | 342° |
| 2026-05-04 13:04 | 31.15287 | 121.79135 | 23 ft | 34 kts | 341° |
| 2026-05-04 13:05 | 31.15516 | 121.79048 | 22 ft | 35 kts | 343° |
| 2026-05-04 13:05 | 31.15749 | 121.78959 | 22 ft | 35 kts | 343° |
| 2026-05-04 13:05 | 31.15947 | 121.78886 | 25 ft | 0 kts | 340° |
| 2026-05-04 13:06 | 31.15949 | 121.78885 | 25 ft | 2 kts | 340° |
| 2026-05-04 13:06 | 31.15992 | 121.78867 | 23 ft | 11 kts | 341° |
| 2026-05-04 13:06 | 31.16089 | 121.78832 | 23 ft | 14 kts | 342° |
| 2026-05-04 13:06 | 31.16149 | 121.78808 | 25 ft | 4 kts | 328° |
| 2026-05-04 13:07 | 31.16151 | 121.78758 | 23 ft | 10 kts | 251° |
| 2026-05-04 13:07 | 31.16130 | 121.78688 | 25 ft | 13 kts | 252° |
| 2026-05-04 13:07 | 31.16108 | 121.78627 | 23 ft | 9 kts | 224° |
| 2026-05-04 13:07 | 31.16042 | 121.78630 | 22 ft | 4 kts | 159° |
| 2026-05-04 13:08 | 31.16041 | 121.78630 | 22 ft | 0 kts | 159° |
| 2026-05-04 13:08 | 31.16028 | 121.78636 | 23 ft | 14 kts | 160° |
| 2026-05-04 13:08 | 31.15688 | 121.78765 | 22 ft | 85 kts | 162° |
| 2026-05-04 13:09 | 31.14965 | 121.79041 | 29 ft | 135 kts | 161° |
| 2026-05-04 13:09 | 31.13964 | 121.79448 | 213 ft | 161 kts | 160° |
| 2026-05-04 13:09 | 31.12890 | 121.79834 | 654 ft | 165 kts | 163° |
| 2026-05-04 13:09 | 31.11780 | 121.80186 | 1247 ft | 163 kts | 167° |
| 2026-05-04 13:10 | 31.10668 | 121.80532 | 1780 ft | 171 kts | 167° |
| 2026-05-04 13:10 | 31.09476 | 121.80932 | 2172 ft | 186 kts | 167° |
| 2026-05-04 13:10 | 31.08185 | 121.81374 | 2541 ft | 198 kts | 166° |
| 2026-05-04 13:10 | 31.06837 | 121.81841 | 2921 ft | 212 kts | 166° |
| 2026-05-04 13:11 | 31.05316 | 121.82358 | 3068 ft | 243 kts | 166° |
| 2026-05-04 13:11 | 31.03606 | 121.82921 | 3479 ft | 263 kts | 166° |
| 2026-05-04 13:11 | 31.01834 | 121.83493 | 4341 ft | 266 kts | 166° |
| 2026-05-04 13:11 | 31.00051 | 121.84035 | 5186 ft | 270 kts | 172° |
| 2026-05-04 13:12 | 30.98174 | 121.83973 | 5973 ft | 273 kts | 197° |
| 2026-05-04 13:12 | 30.96487 | 121.82998 | 6640 ft | 275 kts | 223° |
| 2026-05-04 13:12 | 30.95334 | 121.81232 | 7359 ft | 275 kts | 249° |
| 2026-05-04 13:12 | 30.94934 | 121.79073 | 8182 ft | 274 kts | 274° |
| 2026-05-04 13:13 | 30.95233 | 121.76883 | 8993 ft | 276 kts | 284° |
| 2026-05-04 13:13 | 30.95636 | 121.74679 | 9816 ft | 280 kts | 284° |
| 2026-05-04 13:13 | 30.96022 | 121.72553 | 10552 ft | 283 kts | 284° |
| 2026-05-04 13:13 | 30.96435 | 121.70279 | 11161 ft | 293 kts | 284° |
| 2026-05-04 13:14 | 30.96876 | 121.67907 | 11549 ft | 310 kts | 284° |
| 2026-05-04 13:14 | 30.97342 | 121.65416 | 11924 ft | 327 kts | 283° |
| 2026-05-04 13:14 | 30.97836 | 121.62764 | 12263 ft | 344 kts | 283° |
| 2026-05-04 13:14 | 30.98349 | 121.60000 | 12763 ft | 353 kts | 283° |
| 2026-05-04 13:15 | 30.98868 | 121.57183 | 13455 ft | 357 kts | 283° |
| 2026-05-04 13:15 | 30.99389 | 121.54345 | 14136 ft | 360 kts | 282° |
| 2026-05-04 13:15 | 30.99915 | 121.51474 | 14768 ft | 363 kts | 282° |
| 2026-05-04 13:15 | 31.00442 | 121.48592 | 15412 ft | 365 kts | 282° |
| 2026-05-04 13:16 | 31.00974 | 121.45691 | 16066 ft | 367 kts | 282° |
| 2026-05-04 13:16 | 31.01510 | 121.42779 | 16720 ft | 369 kts | 282° |
| 2026-05-04 13:16 | 31.02021 | 121.40010 | 17332 ft | 371 kts | 281° |
| 2026-05-04 13:16 | 31.02557 | 121.37103 | 17967 ft | 373 kts | 281° |
| 2026-05-04 13:17 | 31.03069 | 121.34329 | 18540 ft | 375 kts | 281° |
| 2026-05-04 13:17 | 31.03613 | 121.31351 | 19112 ft | 376 kts | 281° |
| 2026-05-04 13:17 | 31.04157 | 121.28361 | 19720 ft | 377 kts | 281° |
| 2026-05-04 13:17 | 31.04699 | 121.25377 | 20327 ft | 377 kts | 281° |
| 2026-05-04 13:18 | 31.05244 | 121.22385 | 20921 ft | 377 kts | 281° |
| 2026-05-04 13:18 | 31.05839 | 121.19410 | 21487 ft | 378 kts | 287° |
| 2026-05-04 13:18 | 31.07012 | 121.16652 | 22052 ft | 384 kts | 302° |
| 2026-05-04 13:18 | 31.08872 | 121.14377 | 22577 ft | 393 kts | 318° |
| 2026-05-04 13:19 | 31.11296 | 121.12818 | 23064 ft | 407 kts | 334° |
| 2026-05-04 13:19 | 31.14080 | 121.12171 | 23514 ft | 422 kts | 350° |
| 2026-05-04 13:19 | 31.17069 | 121.11996 | 23881 ft | 426 kts | 351° |
| 2026-05-04 13:19 | 31.20001 | 121.11838 | 24215 ft | 429 kts | 351° |
| 2026-05-04 13:20 | 31.22998 | 121.11680 | 24559 ft | 431 kts | 351° |
| 2026-05-04 13:20 | 31.26000 | 121.11519 | 24898 ft | 434 kts | 351° |
| 2026-05-04 13:20 | 31.29021 | 121.11352 | 25227 ft | 436 kts | 350° |
| 2026-05-04 13:20 | 31.32059 | 121.11179 | 25553 ft | 438 kts | 350° |
| 2026-05-04 13:21 | 31.35111 | 121.11028 | 25869 ft | 443 kts | 353° |
| 2026-05-04 13:21 | 31.38216 | 121.11194 | 26178 ft | 448 kts | 356° |
| 2026-05-04 13:21 | 31.41338 | 121.11374 | 26474 ft | 448 kts | 352° |
| 2026-05-04 13:21 | 31.44416 | 121.11102 | 26768 ft | 441 kts | 343° |
| 2026-05-04 13:22 | 31.47370 | 121.10274 | 27060 ft | 434 kts | 334° |
| 2026-05-04 13:22 | 31.50145 | 121.08954 | 27350 ft | 429 kts | 328° |
| 2026-05-04 13:22 | 31.52854 | 121.07504 | 27613 ft | 431 kts | 328° |
| 2026-05-04 13:22 | 31.55560 | 121.06064 | 27707 ft | 431 kts | 328° |
| 2026-05-04 13:23 | 31.58292 | 121.04612 | 27708 ft | 431 kts | 328° |
| 2026-05-04 13:23 | 31.61022 | 121.03161 | 27709 ft | 431 kts | 328° |
| 2026-05-04 13:23 | 31.63752 | 121.01708 | 27703 ft | 431 kts | 328° |
| 2026-05-04 13:23 | 31.66484 | 121.00252 | 27713 ft | 431 kts | 328° |
| 2026-05-04 13:24 | 31.69214 | 120.98797 | 27703 ft | 431 kts | 328° |
| 2026-05-04 13:24 | 31.71946 | 120.97344 | 27705 ft | 431 kts | 328° |
| 2026-05-04 13:24 | 31.74677 | 120.95891 | 27704 ft | 431 kts | 328° |
| 2026-05-04 13:25 | 31.80135 | 120.92975 | 27705 ft | 430 kts | 328° |
| 2026-05-04 13:25 | 31.82874 | 120.91501 | 27705 ft | 437 kts | 328° |
| 2026-05-04 13:25 | 31.85659 | 120.89999 | 27706 ft | 444 kts | 328° |
| 2026-05-04 13:25 | 31.88490 | 120.88477 | 27702 ft | 450 kts | 328° |
| 2026-05-04 13:26 | 31.91315 | 120.86962 | 27706 ft | 454 kts | 328° |
| 2026-05-04 13:26 | 31.94204 | 120.85416 | 27704 ft | 458 kts | 329° |
| 2026-05-04 13:26 | 31.97112 | 120.83862 | 27705 ft | 460 kts | 329° |
| 2026-05-04 13:26 | 32.00027 | 120.82300 | 27700 ft | 462 kts | 329° |
| 2026-05-04 13:27 | 32.02957 | 120.80727 | 27702 ft | 462 kts | 329° |
| 2026-05-04 13:27 | 32.05887 | 120.79152 | 27701 ft | 463 kts | 329° |
| 2026-05-04 13:27 | 32.08799 | 120.77548 | 27701 ft | 460 kts | 326° |
| 2026-05-04 13:27 | 32.11448 | 120.75503 | 27706 ft | 452 kts | 316° |
| 2026-05-04 13:28 | 32.13684 | 120.72941 | 27703 ft | 446 kts | 306° |
| 2026-05-04 13:28 | 32.15454 | 120.69968 | 27705 ft | 441 kts | 296° |
| 2026-05-04 13:28 | 32.16729 | 120.66695 | 27703 ft | 438 kts | 287° |
| 2026-05-04 13:28 | 32.17483 | 120.63213 | 27702 ft | 437 kts | 277° |
| 2026-05-04 13:29 | 32.17812 | 120.59699 | 27700 ft | 437 kts | 275° |
| 2026-05-04 13:29 | 32.18109 | 120.56134 | 27698 ft | 437 kts | 275° |
| 2026-05-04 13:29 | 32.18406 | 120.52564 | 27696 ft | 437 kts | 275° |
| 2026-05-04 13:29 | 32.18703 | 120.48992 | 27696 ft | 438 kts | 275° |
| 2026-05-04 13:30 | 32.19000 | 120.45411 | 27692 ft | 438 kts | 275° |
| 2026-05-04 13:30 | 32.19295 | 120.41828 | 27693 ft | 438 kts | 275° |
| 2026-05-04 13:30 | 32.19588 | 120.38252 | 27689 ft | 439 kts | 275° |
| 2026-05-04 13:30 | 32.19879 | 120.34665 | 27692 ft | 439 kts | 275° |
| 2026-05-04 13:31 | 32.20166 | 120.31099 | 27691 ft | 439 kts | 275° |
| 2026-05-04 13:31 | 32.20457 | 120.27511 | 27690 ft | 439 kts | 275° |
| 2026-05-04 13:31 | 32.20754 | 120.23928 | 27691 ft | 439 kts | 275° |
| 2026-05-04 13:31 | 32.21053 | 120.20332 | 27686 ft | 439 kts | 275° |
| 2026-05-04 13:32 | 32.21349 | 120.16750 | 27685 ft | 439 kts | 275° |
| 2026-05-04 13:32 | 32.21639 | 120.13207 | 27682 ft | 439 kts | 275° |
| 2026-05-04 13:32 | 32.21930 | 120.09614 | 27683 ft | 439 kts | 275° |
| 2026-05-04 13:32 | 32.22216 | 120.06024 | 27683 ft | 439 kts | 275° |
| 2026-05-04 13:33 | 32.22501 | 120.02430 | 27681 ft | 439 kts | 275° |
| 2026-05-04 13:33 | 32.22785 | 119.98844 | 27681 ft | 440 kts | 275° |
| 2026-05-04 13:33 | 32.23072 | 119.95246 | 27682 ft | 440 kts | 275° |
| 2026-05-04 13:33 | 32.23362 | 119.91646 | 27678 ft | 441 kts | 275° |
| 2026-05-04 13:34 | 32.23652 | 119.88036 | 27678 ft | 441 kts | 275° |
| 2026-05-04 13:34 | 32.23939 | 119.84429 | 27677 ft | 442 kts | 275° |
| 2026-05-04 13:34 | 32.24223 | 119.80817 | 27675 ft | 442 kts | 274° |
| 2026-05-04 13:34 | 32.24249 | 119.77179 | 27676 ft | 443 kts | 266° |
| 2026-05-04 13:35 | 32.23814 | 119.73585 | 27672 ft | 444 kts | 258° |
| 2026-05-04 13:35 | 32.22017 | 119.66594 | 27671 ft | 445 kts | 253° |
| 2026-05-04 13:35 | 32.21077 | 119.63113 | 27669 ft | 445 kts | 253° |
| 2026-05-04 13:36 | 32.20153 | 119.59684 | 27665 ft | 444 kts | 254° |
| 2026-05-04 13:36 | 32.19219 | 119.56210 | 27667 ft | 444 kts | 253° |
| 2026-05-04 13:36 | 32.18283 | 119.52738 | 27665 ft | 444 kts | 254° |
| 2026-05-04 13:36 | 32.17347 | 119.49268 | 27663 ft | 444 kts | 253° |
| 2026-05-04 13:37 | 32.16412 | 119.45795 | 27666 ft | 443 kts | 254° |
| 2026-05-04 13:37 | 32.15491 | 119.42330 | 27663 ft | 443 kts | 254° |
| 2026-05-04 13:37 | 32.14572 | 119.38861 | 27665 ft | 443 kts | 254° |
| 2026-05-04 13:37 | 32.13961 | 119.36559 | 27664 ft | 443 kts | 254° |
| 2026-05-04 13:38 | 32.12731 | 119.31924 | 27663 ft | 443 kts | 254° |
| 2026-05-04 13:38 | 32.11812 | 119.28453 | 27661 ft | 443 kts | 254° |
| 2026-05-04 13:38 | 32.10907 | 119.25037 | 27661 ft | 443 kts | 254° |
| 2026-05-04 13:38 | 32.09987 | 119.21572 | 27661 ft | 443 kts | 254° |
| 2026-05-04 13:39 | 32.09064 | 119.18105 | 27657 ft | 443 kts | 254° |
| 2026-05-04 13:39 | 32.08138 | 119.14649 | 27656 ft | 442 kts | 254° |
| 2026-05-04 13:39 | 32.07208 | 119.11193 | 27656 ft | 443 kts | 253° |
| 2026-05-04 13:39 | 32.06275 | 119.07732 | 27657 ft | 442 kts | 253° |
| 2026-05-04 13:40 | 32.05341 | 119.04275 | 27655 ft | 442 kts | 253° |
| 2026-05-04 13:40 | 32.04415 | 119.00834 | 27657 ft | 441 kts | 254° |
| 2026-05-04 13:40 | 32.03487 | 118.97382 | 27653 ft | 441 kts | 254° |
| 2026-05-04 13:40 | 32.02573 | 118.93978 | 27650 ft | 441 kts | 254° |
| 2026-05-04 13:41 | 32.01661 | 118.90585 | 27651 ft | 440 kts | 254° |
| 2026-05-04 13:41 | 32.00736 | 118.87150 | 27653 ft | 440 kts | 253° |
| 2026-05-04 13:41 | 31.99809 | 118.83717 | 27652 ft | 440 kts | 253° |
| 2026-05-04 13:42 | 31.97560 | 118.77014 | 27653 ft | 440 kts | 248° |
| 2026-05-04 13:42 | 31.96293 | 118.73732 | 27654 ft | 440 kts | 248° |
| 2026-05-04 13:42 | 31.95033 | 118.70456 | 27655 ft | 439 kts | 248° |
| 2026-05-04 13:42 | 31.93776 | 118.67181 | 27653 ft | 439 kts | 248° |
| 2026-05-04 13:43 | 31.92517 | 118.63903 | 27652 ft | 439 kts | 248° |
| 2026-05-04 13:43 | 31.91261 | 118.60634 | 27650 ft | 439 kts | 248° |
| 2026-05-04 13:43 | 31.90020 | 118.57405 | 27648 ft | 438 kts | 248° |
| 2026-05-04 13:43 | 31.88766 | 118.54139 | 27647 ft | 438 kts | 248° |
| 2026-05-04 13:44 | 31.87511 | 118.50865 | 27645 ft | 438 kts | 248° |
| 2026-05-04 13:44 | 31.86261 | 118.47608 | 27644 ft | 438 kts | 248° |
| 2026-05-04 13:44 | 31.85008 | 118.44347 | 27647 ft | 437 kts | 248° |
| 2026-05-04 13:44 | 31.83753 | 118.41095 | 27644 ft | 437 kts | 248° |
| 2026-05-04 13:45 | 31.82495 | 118.37844 | 27643 ft | 436 kts | 248° |
| 2026-05-04 13:45 | 31.81235 | 118.34600 | 27643 ft | 436 kts | 248° |
| 2026-05-04 13:45 | 31.80183 | 118.31275 | 27642 ft | 433 kts | 255° |
| 2026-05-04 13:45 | 31.79569 | 118.27820 | 27643 ft | 432 kts | 263° |
| 2026-05-04 13:46 | 31.79380 | 118.24290 | 27643 ft | 433 kts | 269° |
| 2026-05-04 13:46 | 31.79324 | 118.20795 | 27645 ft | 433 kts | 268° |
| 2026-05-04 13:46 | 31.79260 | 118.17262 | 27645 ft | 433 kts | 268° |
| 2026-05-04 13:46 | 31.79188 | 118.13720 | 27642 ft | 433 kts | 268° |
| 2026-05-04 13:47 | 31.79116 | 118.10174 | 27642 ft | 434 kts | 268° |
| 2026-05-04 13:47 | 31.79046 | 118.06625 | 27640 ft | 435 kts | 268° |
| 2026-05-04 13:47 | 31.78980 | 118.03071 | 27638 ft | 435 kts | 268° |
| 2026-05-04 13:47 | 31.78918 | 117.99516 | 27640 ft | 436 kts | 268° |
| 2026-05-04 13:48 | 31.78857 | 117.95948 | 27643 ft | 436 kts | 268° |
| 2026-05-04 13:48 | 31.78797 | 117.92389 | 27639 ft | 436 kts | 269° |
| 2026-05-04 13:48 | 31.78735 | 117.88825 | 27641 ft | 437 kts | 268° |
| 2026-05-04 13:48 | 31.78670 | 117.85254 | 27640 ft | 437 kts | 268° |
| 2026-05-04 13:49 | 31.78602 | 117.81686 | 27637 ft | 437 kts | 268° |
| 2026-05-04 13:49 | 31.78531 | 117.78160 | 27638 ft | 438 kts | 268° |
| 2026-05-04 13:49 | 31.78457 | 117.74580 | 27638 ft | 438 kts | 268° |
| 2026-05-04 13:49 | 31.78383 | 117.71007 | 27638 ft | 438 kts | 268° |
| 2026-05-04 13:50 | 31.78310 | 117.67429 | 27637 ft | 438 kts | 268° |
| 2026-05-04 13:50 | 31.78235 | 117.63850 | 27635 ft | 438 kts | 268° |
| 2026-05-04 13:50 | 31.78161 | 117.60274 | 27633 ft | 438 kts | 268° |
| 2026-05-04 13:50 | 31.78088 | 117.56690 | 27631 ft | 438 kts | 268° |
| 2026-05-04 13:51 | 31.78014 | 117.53107 | 27633 ft | 439 kts | 268° |
| 2026-05-04 13:51 | 31.77938 | 117.49524 | 27631 ft | 439 kts | 268° |
| 2026-05-04 13:51 | 31.77861 | 117.45962 | 27630 ft | 439 kts | 268° |
| 2026-05-04 13:51 | 31.77780 | 117.42374 | 27628 ft | 439 kts | 268° |
| 2026-05-04 13:52 | 31.77839 | 117.35196 | 27630 ft | 440 kts | 277° |
| 2026-05-04 13:52 | 31.78480 | 117.31681 | 27627 ft | 439 kts | 285° |
| 2026-05-04 13:52 | 31.79570 | 117.28433 | 27627 ft | 417 kts | 294° |
| 2026-05-04 13:53 | 31.81022 | 117.25516 | 27632 ft | 415 kts | 302° |
| 2026-05-04 13:53 | 31.82818 | 117.22845 | 27629 ft | 418 kts | 307° |
| 2026-05-04 13:53 | 31.84683 | 117.20268 | 27630 ft | 419 kts | 307° |
| 2026-05-04 13:54 | 31.88469 | 117.15014 | 27627 ft | 419 kts | 307° |
| 2026-05-04 13:54 | 31.90332 | 117.12426 | 27628 ft | 420 kts | 307° |
| 2026-05-04 13:54 | 31.94113 | 117.07177 | 27630 ft | 420 kts | 307° |
| 2026-05-04 13:55 | 31.96003 | 117.04551 | 27632 ft | 421 kts | 307° |
| 2026-05-04 13:55 | 31.99790 | 116.99283 | 27628 ft | 422 kts | 307° |
| 2026-05-04 13:55 | 32.01687 | 116.96650 | 27628 ft | 422 kts | 307° |
| 2026-05-04 13:56 | 32.03592 | 116.94014 | 27628 ft | 422 kts | 308° |
| 2026-05-04 13:56 | 32.05502 | 116.91377 | 27630 ft | 423 kts | 308° |
| 2026-05-04 13:56 | 32.09319 | 116.86094 | 27627 ft | 424 kts | 308° |
| 2026-05-04 13:57 | 32.11227 | 116.83445 | 27626 ft | 424 kts | 308° |
| 2026-05-04 13:57 | 32.13110 | 116.80821 | 27625 ft | 425 kts | 308° |
| 2026-05-04 13:58 | 32.18839 | 116.72828 | 27621 ft | 426 kts | 308° |
| 2026-05-04 13:58 | 32.22633 | 116.67444 | 27618 ft | 427 kts | 307° |
| 2026-05-04 13:58 | 32.24509 | 116.64729 | 27619 ft | 427 kts | 307° |
| 2026-05-04 13:59 | 32.26387 | 116.62006 | 27618 ft | 427 kts | 307° |
| 2026-05-04 13:59 | 32.28270 | 116.59281 | 27619 ft | 428 kts | 307° |
| 2026-05-04 13:59 | 32.32037 | 116.53831 | 27614 ft | 429 kts | 307° |
| 2026-05-04 14:00 | 32.33922 | 116.51105 | 27615 ft | 429 kts | 307° |
| 2026-05-04 14:00 | 32.37680 | 116.45670 | 27616 ft | 430 kts | 307° |
| 2026-05-04 14:00 | 32.39570 | 116.42933 | 27612 ft | 430 kts | 307° |
| 2026-05-04 14:01 | 32.41461 | 116.40193 | 27618 ft | 430 kts | 307° |
| 2026-05-04 14:01 | 32.43353 | 116.37447 | 27614 ft | 430 kts | 307° |
| 2026-05-04 14:01 | 32.47138 | 116.31951 | 27609 ft | 431 kts | 308° |
| 2026-05-04 14:02 | 32.49029 | 116.29204 | 27616 ft | 430 kts | 308° |
| 2026-05-04 14:02 | 32.50920 | 116.26455 | 27615 ft | 431 kts | 308° |
| 2026-05-04 14:02 | 32.52811 | 116.23705 | 27616 ft | 430 kts | 308° |
| 2026-05-04 14:02 | 32.54701 | 116.20954 | 27617 ft | 430 kts | 308° |
| 2026-05-04 14:03 | 32.56587 | 116.18207 | 27611 ft | 431 kts | 308° |
| 2026-05-04 14:03 | 32.58473 | 116.15493 | 27612 ft | 431 kts | 308° |
| 2026-05-04 14:03 | 32.60397 | 116.12779 | 27612 ft | 430 kts | 309° |
| 2026-05-04 14:03 | 32.62337 | 116.10072 | 27614 ft | 430 kts | 309° |
| 2026-05-04 14:04 | 32.66193 | 116.04703 | 27615 ft | 430 kts | 309° |
| 2026-05-04 14:04 | 32.68129 | 116.01992 | 27614 ft | 430 kts | 309° |
| 2026-05-04 14:04 | 32.70059 | 115.99278 | 27614 ft | 430 kts | 309° |
| 2026-05-04 14:05 | 32.73903 | 115.93834 | 27606 ft | 430 kts | 309° |
| 2026-05-04 14:05 | 32.75821 | 115.91109 | 27608 ft | 430 kts | 309° |
| 2026-05-04 14:05 | 32.77739 | 115.88383 | 27609 ft | 430 kts | 309° |
| 2026-05-04 14:06 | 32.79657 | 115.85660 | 27607 ft | 430 kts | 309° |
| 2026-05-04 14:06 | 32.81582 | 115.82933 | 27605 ft | 430 kts | 309° |
| 2026-05-04 14:06 | 32.83504 | 115.80208 | 27605 ft | 430 kts | 309° |
| 2026-05-04 14:06 | 32.85394 | 115.77523 | 27604 ft | 430 kts | 309° |
| 2026-05-04 14:07 | 32.87310 | 115.74796 | 27604 ft | 430 kts | 309° |
| 2026-05-04 14:07 | 32.89229 | 115.72071 | 27606 ft | 430 kts | 309° |
| 2026-05-04 14:07 | 32.91178 | 115.69368 | 27604 ft | 430 kts | 310° |
| 2026-05-04 14:07 | 32.93147 | 115.66689 | 27606 ft | 430 kts | 310° |
| 2026-05-04 14:08 | 32.95122 | 115.64019 | 27605 ft | 430 kts | 310° |
| 2026-05-04 14:08 | 32.97098 | 115.61346 | 27603 ft | 430 kts | 310° |
| 2026-05-04 14:08 | 32.99074 | 115.58666 | 27601 ft | 430 kts | 310° |
| 2026-05-04 14:08 | 33.01043 | 115.55987 | 27604 ft | 430 kts | 310° |
| 2026-05-04 14:09 | 33.04973 | 115.50610 | 27600 ft | 430 kts | 310° |
| 2026-05-04 14:09 | 33.06908 | 115.47954 | 27600 ft | 430 kts | 310° |
| 2026-05-04 14:10 | 33.10828 | 115.42560 | 27598 ft | 431 kts | 310° |
| 2026-05-04 14:10 | 33.12786 | 115.39857 | 27600 ft | 431 kts | 310° |
| 2026-05-04 14:10 | 33.14749 | 115.37151 | 27599 ft | 431 kts | 310° |
| 2026-05-04 14:10 | 33.16706 | 115.34448 | 27599 ft | 431 kts | 310° |
| 2026-05-04 14:11 | 33.18665 | 115.31743 | 27598 ft | 431 kts | 310° |
| 2026-05-04 14:11 | 33.22586 | 115.26331 | 27597 ft | 431 kts | 310° |
| 2026-05-04 14:11 | 33.24554 | 115.23618 | 27599 ft | 431 kts | 310° |
| 2026-05-04 14:12 | 33.26491 | 115.20950 | 27596 ft | 431 kts | 310° |
| 2026-05-04 14:12 | 33.28455 | 115.18238 | 27594 ft | 431 kts | 310° |
| 2026-05-04 14:12 | 33.32371 | 115.12810 | 27590 ft | 431 kts | 310° |
| 2026-05-04 14:13 | 33.34329 | 115.10087 | 27591 ft | 431 kts | 310° |
| 2026-05-04 14:13 | 33.36283 | 115.07370 | 27589 ft | 431 kts | 310° |
| 2026-05-04 14:13 | 33.38245 | 115.04645 | 27589 ft | 431 kts | 310° |
| 2026-05-04 14:13 | 33.40201 | 115.01923 | 27592 ft | 431 kts | 310° |
| 2026-05-04 14:14 | 33.42154 | 114.99202 | 27591 ft | 431 kts | 310° |
| 2026-05-04 14:14 | 33.46066 | 114.93753 | 27595 ft | 432 kts | 310° |
| 2026-05-04 14:14 | 33.48024 | 114.91025 | 27591 ft | 432 kts | 310° |
| 2026-05-04 14:15 | 33.51939 | 114.85562 | 27589 ft | 432 kts | 310° |
| 2026-05-04 14:15 | 33.55852 | 114.80102 | 27589 ft | 432 kts | 310° |
| 2026-05-04 14:16 | 33.59735 | 114.74672 | 27586 ft | 432 kts | 310° |
| 2026-05-04 14:16 | 33.61703 | 114.71957 | 27587 ft | 432 kts | 311° |
| 2026-05-04 14:17 | 33.65091 | 114.66039 | 27584 ft | 432 kts | 296° |
| 2026-05-04 14:17 | 33.66202 | 114.62687 | 27586 ft | 433 kts | 288° |
| 2026-05-04 14:17 | 33.67140 | 114.55556 | 27583 ft | 435 kts | 275° |
| 2026-05-04 14:18 | 33.67360 | 114.51939 | 27584 ft | 434 kts | 275° |
| 2026-05-04 14:18 | 33.67733 | 114.45937 | 27580 ft | 434 kts | 275° |
| 2026-05-04 14:19 | 33.68186 | 114.38702 | 27583 ft | 434 kts | 275° |
| 2026-05-04 14:19 | 33.68408 | 114.35092 | 27581 ft | 434 kts | 275° |
| 2026-05-04 14:19 | 33.68629 | 114.31485 | 27583 ft | 434 kts | 275° |
| 2026-05-04 14:19 | 33.68924 | 114.26698 | 27579 ft | 434 kts | 275° |
| 2026-05-04 14:20 | 33.69075 | 114.24251 | 27579 ft | 434 kts | 275° |
| 2026-05-04 14:20 | 33.69294 | 114.20646 | 27581 ft | 434 kts | 275° |
| 2026-05-04 14:20 | 33.69511 | 114.17036 | 27580 ft | 434 kts | 275° |
| 2026-05-04 14:21 | 33.69939 | 114.09861 | 27581 ft | 433 kts | 275° |
| 2026-05-04 14:21 | 33.70152 | 114.06250 | 27580 ft | 433 kts | 275° |
| 2026-05-04 14:21 | 33.70363 | 114.02645 | 27579 ft | 433 kts | 275° |
| 2026-05-04 14:21 | 33.70574 | 113.99039 | 27581 ft | 433 kts | 275° |
| 2026-05-04 14:22 | 33.70785 | 113.95432 | 27579 ft | 433 kts | 275° |
| 2026-05-04 14:22 | 33.70996 | 113.91828 | 27577 ft | 433 kts | 275° |
| 2026-05-04 14:22 | 33.71206 | 113.88222 | 27579 ft | 433 kts | 275° |
| 2026-05-04 14:22 | 33.71416 | 113.84610 | 27577 ft | 433 kts | 275° |
| 2026-05-04 14:23 | 33.71831 | 113.77396 | 27578 ft | 433 kts | 275° |
| 2026-05-04 14:23 | 33.72036 | 113.73797 | 27581 ft | 433 kts | 275° |
| 2026-05-04 14:23 | 33.72240 | 113.70189 | 27575 ft | 433 kts | 275° |
| 2026-05-04 14:24 | 33.72441 | 113.66582 | 27577 ft | 433 kts | 275° |
| 2026-05-04 14:24 | 33.72639 | 113.63027 | 27576 ft | 433 kts | 275° |
| 2026-05-04 14:24 | 33.72836 | 113.59422 | 27577 ft | 432 kts | 275° |
| 2026-05-04 14:24 | 33.73032 | 113.55820 | 27577 ft | 433 kts | 275° |
| 2026-05-04 14:25 | 33.73228 | 113.52216 | 27575 ft | 433 kts | 275° |
| 2026-05-04 14:25 | 33.73624 | 113.45000 | 27577 ft | 433 kts | 275° |
| 2026-05-04 14:25 | 33.73821 | 113.41394 | 27579 ft | 433 kts | 275° |
| 2026-05-04 14:26 | 33.74018 | 113.37782 | 27579 ft | 433 kts | 275° |
| 2026-05-04 14:26 | 33.74210 | 113.34176 | 27581 ft | 433 kts | 275° |
| 2026-05-04 14:26 | 33.74401 | 113.30567 | 27579 ft | 433 kts | 275° |
| 2026-05-04 14:26 | 33.74588 | 113.26956 | 27577 ft | 433 kts | 275° |
| 2026-05-04 14:27 | 33.74774 | 113.23343 | 27578 ft | 433 kts | 275° |
| 2026-05-04 14:27 | 33.74964 | 113.19733 | 27577 ft | 433 kts | 275° |
| 2026-05-04 14:27 | 33.75155 | 113.16117 | 27576 ft | 433 kts | 275° |
| 2026-05-04 14:27 | 33.75340 | 113.12557 | 27580 ft | 433 kts | 275° |
| 2026-05-04 14:28 | 33.75529 | 113.08942 | 27579 ft | 433 kts | 275° |
| 2026-05-04 14:28 | 33.75717 | 113.05326 | 27581 ft | 433 kts | 275° |
| 2026-05-04 14:28 | 33.75900 | 113.01707 | 27580 ft | 434 kts | 275° |
| 2026-05-04 14:28 | 33.76079 | 112.98094 | 27579 ft | 434 kts | 275° |
| 2026-05-04 14:29 | 33.76439 | 112.90858 | 27581 ft | 433 kts | 275° |
| 2026-05-04 14:29 | 33.76803 | 112.83629 | 27582 ft | 434 kts | 275° |
| 2026-05-04 14:30 | 33.76984 | 112.80007 | 27580 ft | 434 kts | 275° |
| 2026-05-04 14:30 | 33.77159 | 112.76440 | 27583 ft | 434 kts | 275° |
| 2026-05-04 14:30 | 33.77508 | 112.69199 | 27586 ft | 434 kts | 275° |
| 2026-05-04 14:31 | 33.77681 | 112.65580 | 27587 ft | 434 kts | 275° |
| 2026-05-04 14:31 | 33.78021 | 112.58327 | 27591 ft | 434 kts | 275° |
| 2026-05-04 14:32 | 33.78358 | 112.51074 | 27594 ft | 434 kts | 275° |
| 2026-05-04 14:32 | 33.78527 | 112.47449 | 27597 ft | 435 kts | 275° |
| 2026-05-04 14:32 | 33.78694 | 112.43824 | 27597 ft | 435 kts | 275° |
| 2026-05-04 14:32 | 33.78860 | 112.40195 | 27601 ft | 435 kts | 275° |
| 2026-05-04 14:33 | 33.79028 | 112.36562 | 27602 ft | 435 kts | 275° |
| 2026-05-04 14:33 | 33.79191 | 112.32986 | 27602 ft | 435 kts | 275° |
| 2026-05-04 14:33 | 33.79355 | 112.29359 | 27603 ft | 435 kts | 275° |
| 2026-05-04 14:33 | 33.79517 | 112.25730 | 27606 ft | 435 kts | 275° |
| 2026-05-04 14:34 | 33.79680 | 112.22098 | 27607 ft | 435 kts | 275° |
| 2026-05-04 14:34 | 33.79840 | 112.18464 | 27606 ft | 435 kts | 275° |
| 2026-05-04 14:34 | 33.79998 | 112.14836 | 27610 ft | 435 kts | 275° |
| 2026-05-04 14:34 | 33.80155 | 112.11204 | 27611 ft | 435 kts | 275° |
| 2026-05-04 14:35 | 33.80313 | 112.07563 | 27615 ft | 435 kts | 275° |
| 2026-05-04 14:35 | 33.80469 | 112.03935 | 27613 ft | 436 kts | 275° |
| 2026-05-04 14:35 | 33.80619 | 112.00291 | 27611 ft | 436 kts | 275° |
| 2026-05-04 14:35 | 33.80770 | 111.96660 | 27613 ft | 436 kts | 275° |
| 2026-05-04 14:36 | 33.80921 | 111.93012 | 27612 ft | 436 kts | 275° |
| 2026-05-04 14:36 | 33.81073 | 111.89399 | 27611 ft | 443 kts | 275° |
| 2026-05-04 14:36 | 33.81232 | 111.85664 | 27616 ft | 452 kts | 275° |
| 2026-05-04 14:36 | 33.81394 | 111.81864 | 27617 ft | 459 kts | 275° |
| 2026-05-04 14:37 | 33.81553 | 111.78018 | 27616 ft | 464 kts | 275° |
| 2026-05-04 14:37 | 33.81713 | 111.74123 | 27617 ft | 468 kts | 275° |
| 2026-05-04 14:37 | 33.81871 | 111.70207 | 27617 ft | 470 kts | 275° |
| 2026-05-04 14:37 | 33.82025 | 111.66275 | 27617 ft | 471 kts | 275° |
| 2026-05-04 14:38 | 33.82177 | 111.62342 | 27617 ft | 471 kts | 275° |
| 2026-05-04 14:38 | 33.82326 | 111.58409 | 27620 ft | 471 kts | 275° |
| 2026-05-04 14:38 | 33.82476 | 111.54478 | 27618 ft | 471 kts | 275° |
| 2026-05-04 14:38 | 33.82625 | 111.50550 | 27618 ft | 471 kts | 275° |
| 2026-05-04 14:39 | 33.82777 | 111.46617 | 27618 ft | 471 kts | 275° |
| 2026-05-04 14:39 | 33.82927 | 111.42734 | 27619 ft | 471 kts | 275° |
| 2026-05-04 14:39 | 33.83077 | 111.38802 | 27617 ft | 471 kts | 275° |
| 2026-05-04 14:40 | 33.83367 | 111.30931 | 27618 ft | 471 kts | 275° |
| 2026-05-04 14:40 | 33.83514 | 111.27000 | 27610 ft | 471 kts | 275° |
| 2026-05-04 14:40 | 33.83660 | 111.23061 | 27613 ft | 471 kts | 275° |
| 2026-05-04 14:40 | 33.83802 | 111.19126 | 27611 ft | 471 kts | 275° |
| 2026-05-04 14:41 | 33.83942 | 111.15188 | 27607 ft | 471 kts | 275° |
| 2026-05-04 14:41 | 33.84083 | 111.11246 | 27609 ft | 471 kts | 275° |
| 2026-05-04 14:41 | 33.84357 | 111.03381 | 27605 ft | 471 kts | 275° |
| 2026-05-04 14:42 | 33.84623 | 110.95553 | 27597 ft | 472 kts | 274° |
| 2026-05-04 14:42 | 33.84750 | 110.91612 | 27600 ft | 472 kts | 274° |
| 2026-05-04 14:42 | 33.84879 | 110.87666 | 27594 ft | 472 kts | 274° |
| 2026-05-04 14:43 | 33.85010 | 110.83724 | 27603 ft | 472 kts | 275° |
| 2026-05-04 14:43 | 33.85143 | 110.79783 | 27608 ft | 472 kts | 274° |
| 2026-05-04 14:43 | 33.85273 | 110.75842 | 27602 ft | 472 kts | 274° |
| 2026-05-04 14:43 | 33.85403 | 110.71898 | 27592 ft | 472 kts | 274° |
| 2026-05-04 14:44 | 33.85532 | 110.67952 | 27609 ft | 472 kts | 274° |
| 2026-05-04 14:44 | 33.85657 | 110.64007 | 27590 ft | 472 kts | 274° |
| 2026-05-04 14:44 | 33.85780 | 110.60062 | 27592 ft | 472 kts | 274° |
| 2026-05-04 14:44 | 33.85903 | 110.56122 | 27591 ft | 472 kts | 274° |
| 2026-05-04 14:45 | 33.86026 | 110.52175 | 27591 ft | 472 kts | 274° |
| 2026-05-04 14:45 | 33.86146 | 110.48237 | 27591 ft | 472 kts | 274° |
| 2026-05-04 14:45 | 33.86264 | 110.44337 | 27593 ft | 472 kts | 274° |
| 2026-05-04 14:45 | 33.86379 | 110.40397 | 27588 ft | 472 kts | 274° |
| 2026-05-04 14:46 | 33.86493 | 110.36446 | 27591 ft | 472 kts | 274° |
| 2026-05-04 14:46 | 33.86607 | 110.32489 | 27588 ft | 472 kts | 274° |
| 2026-05-04 14:46 | 33.86720 | 110.28542 | 27585 ft | 472 kts | 274° |
| 2026-05-04 14:46 | 33.86832 | 110.24599 | 27595 ft | 472 kts | 274° |
| 2026-05-04 14:47 | 33.86941 | 110.20649 | 27601 ft | 472 kts | 274° |
| 2026-05-04 14:47 | 33.87050 | 110.16708 | 27586 ft | 472 kts | 274° |
| 2026-05-04 14:47 | 33.87161 | 110.12757 | 27598 ft | 472 kts | 274° |
| 2026-05-04 14:47 | 33.87272 | 110.08822 | 27599 ft | 472 kts | 274° |
| 2026-05-04 14:48 | 33.87379 | 110.04874 | 27590 ft | 471 kts | 274° |
| 2026-05-04 14:48 | 33.87478 | 110.00940 | 27588 ft | 469 kts | 274° |
| 2026-05-04 14:48 | 33.87584 | 109.97065 | 27585 ft | 451 kts | 276° |
| 2026-05-04 14:48 | 33.87951 | 109.93443 | 26995 ft | 438 kts | 283° |
| 2026-05-04 14:49 | 33.88776 | 109.89944 | 26122 ft | 433 kts | 292° |
| 2026-05-04 14:49 | 33.89900 | 109.86593 | 25318 ft | 430 kts | 293° |
| 2026-05-04 14:49 | 33.91007 | 109.83267 | 24576 ft | 426 kts | 292° |
| 2026-05-04 14:49 | 33.92088 | 109.79958 | 23862 ft | 423 kts | 292° |
| 2026-05-04 14:50 | 33.93148 | 109.76674 | 23095 ft | 420 kts | 292° |
| 2026-05-04 14:50 | 33.94197 | 109.73403 | 22350 ft | 416 kts | 291° |
| 2026-05-04 14:50 | 33.95233 | 109.70165 | 21660 ft | 412 kts | 291° |
| 2026-05-04 14:50 | 33.96255 | 109.66962 | 21003 ft | 408 kts | 291° |
| 2026-05-04 14:51 | 33.97267 | 109.63788 | 20357 ft | 404 kts | 291° |
| 2026-05-04 14:51 | 33.98274 | 109.60643 | 19726 ft | 401 kts | 291° |
| 2026-05-04 14:51 | 33.99272 | 109.57528 | 19136 ft | 397 kts | 291° |
| 2026-05-04 14:51 | 34.00264 | 109.54439 | 18575 ft | 394 kts | 291° |
| 2026-05-04 14:52 | 34.01252 | 109.51373 | 18004 ft | 391 kts | 291° |
| 2026-05-04 14:52 | 34.02232 | 109.48329 | 17377 ft | 388 kts | 291° |
| 2026-05-04 14:52 | 34.03189 | 109.45348 | 16772 ft | 385 kts | 291° |
| 2026-05-04 14:52 | 34.04147 | 109.42349 | 16173 ft | 382 kts | 291° |
| 2026-05-04 14:53 | 34.05093 | 109.39374 | 15596 ft | 379 kts | 291° |
| 2026-05-04 14:53 | 34.06035 | 109.36410 | 15031 ft | 377 kts | 291° |
| 2026-05-04 14:53 | 34.06967 | 109.33477 | 14482 ft | 374 kts | 291° |
| 2026-05-04 14:53 | 34.07895 | 109.30559 | 13922 ft | 371 kts | 291° |
| 2026-05-04 14:54 | 34.08816 | 109.27658 | 13311 ft | 369 kts | 291° |
| 2026-05-04 14:54 | 34.09731 | 109.24777 | 12699 ft | 366 kts | 291° |
| 2026-05-04 14:54 | 34.10638 | 109.21920 | 12134 ft | 364 kts | 291° |
| 2026-05-04 14:54 | 34.11545 | 109.19061 | 11930 ft | 365 kts | 291° |
| 2026-05-04 14:55 | 34.12452 | 109.16200 | 11928 ft | 365 kts | 291° |
| 2026-05-04 14:55 | 34.13355 | 109.13344 | 11716 ft | 363 kts | 291° |
| 2026-05-04 14:55 | 34.14249 | 109.10511 | 11145 ft | 359 kts | 290° |
| 2026-05-04 14:55 | 34.15137 | 109.07699 | 10524 ft | 357 kts | 290° |
| 2026-05-04 14:56 | 34.16017 | 109.04904 | 9911 ft | 355 kts | 290° |
| 2026-05-04 14:56 | 34.16871 | 109.02194 | 9666 ft | 342 kts | 290° |
| 2026-05-04 14:56 | 34.17696 | 108.99571 | 9535 ft | 327 kts | 290° |
| 2026-05-04 14:56 | 34.18486 | 108.97062 | 9406 ft | 312 kts | 290° |
| 2026-05-04 14:57 | 34.19240 | 108.94665 | 9276 ft | 299 kts | 290° |
| 2026-05-04 14:57 | 34.19961 | 108.92366 | 9148 ft | 286 kts | 290° |
| 2026-05-04 14:57 | 34.20652 | 108.90166 | 9018 ft | 275 kts | 290° |
| 2026-05-04 14:57 | 34.21316 | 108.88056 | 8897 ft | 263 kts | 290° |
| 2026-05-04 14:58 | 34.22032 | 108.86077 | 8746 ft | 253 kts | 300° |
| 2026-05-04 14:58 | 34.23075 | 108.84386 | 8456 ft | 251 kts | 314° |
| 2026-05-04 14:58 | 34.24374 | 108.82978 | 8086 ft | 250 kts | 318° |
| 2026-05-04 14:58 | 34.25680 | 108.81595 | 7702 ft | 250 kts | 317° |
| 2026-05-04 14:59 | 34.26983 | 108.80205 | 7329 ft | 249 kts | 317° |
| 2026-05-04 14:59 | 34.28243 | 108.78779 | 6973 ft | 247 kts | 306° |
| 2026-05-04 14:59 | 34.28772 | 108.75088 | 6614 ft | 223 kts | 248° |
| 2026-05-04 15:00 | 34.27952 | 108.73521 | 6280 ft | 221 kts | 228° |
| 2026-05-04 15:00 | 34.26958 | 108.72128 | 5953 ft | 222 kts | 229° |
| 2026-05-04 15:00 | 34.25962 | 108.70708 | 5659 ft | 221 kts | 229° |
| 2026-05-04 15:01 | 34.24050 | 108.67971 | 5499 ft | 200 kts | 229° |
| 2026-05-04 15:01 | 34.23167 | 108.66708 | 5515 ft | 197 kts | 229° |
| 2026-05-04 15:01 | 34.22276 | 108.65454 | 5384 ft | 196 kts | 228° |
| 2026-05-04 15:01 | 34.21378 | 108.64227 | 5166 ft | 194 kts | 227° |
| 2026-05-04 15:02 | 34.20482 | 108.63013 | 5049 ft | 193 kts | 227° |
| 2026-05-04 15:02 | 34.19590 | 108.61803 | 5012 ft | 193 kts | 227° |
| 2026-05-04 15:02 | 34.18698 | 108.60589 | 5021 ft | 193 kts | 227° |
| 2026-05-04 15:02 | 34.17806 | 108.59373 | 5027 ft | 193 kts | 227° |
| 2026-05-04 15:03 | 34.16918 | 108.58161 | 5024 ft | 193 kts | 227° |
| 2026-05-04 15:03 | 34.16028 | 108.56947 | 5023 ft | 193 kts | 227° |
| 2026-05-04 15:03 | 34.15138 | 108.55734 | 5030 ft | 193 kts | 227° |
| 2026-05-04 15:03 | 34.14280 | 108.54490 | 5017 ft | 193 kts | 237° |
| 2026-05-04 15:04 | 34.13815 | 108.52993 | 5029 ft | 196 kts | 260° |
| 2026-05-04 15:04 | 34.13892 | 108.51348 | 5029 ft | 200 kts | 284° |
| 2026-05-04 15:04 | 34.14535 | 108.49851 | 5030 ft | 204 kts | 308° |
| 2026-05-04 15:04 | 34.15655 | 108.48786 | 5028 ft | 209 kts | 333° |
| 2026-05-04 15:05 | 34.17050 | 108.48246 | 5035 ft | 211 kts | 342° |
| 2026-05-04 15:05 | 34.18459 | 108.47762 | 5023 ft | 211 kts | 342° |
| 2026-05-04 15:05 | 34.19905 | 108.47488 | 5019 ft | 213 kts | 1° |
| 2026-05-04 15:05 | 34.21351 | 108.47836 | 5014 ft | 214 kts | 23° |
| 2026-05-04 15:06 | 34.22597 | 108.48804 | 5012 ft | 213 kts | 47° |
| 2026-05-04 15:06 | 34.23578 | 108.50140 | 5021 ft | 213 kts | 50° |
| 2026-05-04 15:06 | 34.24557 | 108.51488 | 5013 ft | 213 kts | 50° |
| 2026-05-04 15:07 | 34.26514 | 108.54182 | 5008 ft | 213 kts | 50° |
| 2026-05-04 15:07 | 34.27478 | 108.55511 | 5008 ft | 213 kts | 50° |
| 2026-05-04 15:07 | 34.28464 | 108.56871 | 5007 ft | 212 kts | 50° |
| 2026-05-04 15:07 | 34.29425 | 108.58197 | 5011 ft | 212 kts | 50° |
| 2026-05-04 15:08 | 34.30397 | 108.59539 | 5008 ft | 211 kts | 50° |
| 2026-05-04 15:08 | 34.31357 | 108.60864 | 4777 ft | 210 kts | 50° |
| 2026-05-04 15:08 | 34.32319 | 108.62194 | 4475 ft | 210 kts | 50° |
| 2026-05-04 15:08 | 34.33274 | 108.63515 | 4200 ft | 206 kts | 50° |
| 2026-05-04 15:09 | 34.34196 | 108.64787 | 3949 ft | 194 kts | 50° |
| 2026-05-04 15:09 | 34.35058 | 108.65979 | 3700 ft | 184 kts | 50° |
| 2026-05-04 15:09 | 34.35876 | 108.67112 | 3468 ft | 175 kts | 51° |
| 2026-05-04 15:10 | 34.37396 | 108.69216 | 3047 ft | 157 kts | 50° |
| 2026-05-04 15:10 | 34.38095 | 108.70183 | 2840 ft | 150 kts | 51° |
| 2026-05-04 15:10 | 34.39455 | 108.72069 | 2464 ft | 147 kts | 50° |
| 2026-05-04 15:11 | 34.40126 | 108.73000 | 2264 ft | 146 kts | 49° |
| 2026-05-04 15:11 | 34.40779 | 108.73940 | 2074 ft | 146 kts | 50° |
| 2026-05-04 15:11 | 34.41447 | 108.74860 | 1879 ft | 145 kts | 46° |
| 2026-05-04 15:11 | 34.42123 | 108.75761 | 1678 ft | 144 kts | 47° |
| 2026-05-04 15:12 | 34.42778 | 108.76647 | 1578 ft | 129 kts | 45° |
| 2026-05-04 15:12 | 34.43214 | 108.77251 | 1577 ft | 62 kts | 49° |
| 2026-05-04 15:12 | 34.43379 | 108.77482 | 1576 ft | 7 kts | 48° |
| 2026-05-04 15:12 | 34.43378 | 108.77481 | 1576 ft | 4 kts | 48° |